sensor_id;sensor_type;location;lat;lon;timestamp;pressure;altitude;pressure_sealevel;temperature;humidity
80566;BME280;69915;54.862;10.730;2023-11-21T00:02:25;66079.03;;;-142.69;100.00
80566;BME280;69915;54.862;10.730;2023-11-21T00:04:50;66079.03;;;-142.69;100.00
80566;BME280;69915;54.862;10.730;2023-11-21T00:07:16;66079.03;;;-142.69;100.00
80566;BME280;69915;54.862;10.730;2023-11-21T00:09:42;66079.03;;;-142.69;100.00
80566;BME280;69915;54.862;10.730;2023-11-21T00:12:08;66079.03;;;-142.69;100.00
80566;BME280;69915;54.862;10.730;2023-11-21T00:14:37;66079.03;;;-142.69;100.00
80566;BME280;69915;54.862;10.730;2023-11-21T00:17:04;66079.03;;;-142.69;100.00
80566;BME280;69915;54.862;10.730;2023-11-21T00:19:30;66079.03;;;-142.69;100.00
80566;BME280;69915;54.862;10.730;2023-11-21T00:21:56;66079.03;;;-142.69;100.00
80566;BME280;69915;54.862;10.730;2023-11-21T00:24:24;66079.03;;;-142.69;100.00
80566;BME280;69915;54.862;10.730;2023-11-21T00:26:50;66079.03;;;-142.69;100.00
80566;BME280;69915;54.862;10.730;2023-11-21T00:29:16;66079.03;;;-142.69;100.00
80566;BME280;69915;54.862;10.730;2023-11-21T00:31:43;66079.03;;;-142.69;100.00
80566;BME280;69915;54.862;10.730;2023-11-21T00:34:09;66079.03;;;-142.69;100.00
80566;BME280;69915;54.862;10.730;2023-11-21T00:36:34;66079.03;;;-142.69;100.00
80566;BME280;69915;54.862;10.730;2023-11-21T00:39:00;66079.03;;;-142.69;100.00
80566;BME280;69915;54.862;10.730;2023-11-21T00:41:25;66079.03;;;-142.69;100.00
80566;BME280;69915;54.862;10.730;2023-11-21T00:43:54;66079.03;;;-142.69;100.00
80566;BME280;69915;54.862;10.730;2023-11-21T00:46:20;66079.03;;;-142.69;100.00
80566;BME280;69915;54.862;10.730;2023-11-21T00:48:46;66079.03;;;-142.69;100.00
80566;BME280;69915;54.862;10.730;2023-11-21T00:51:11;66079.03;;;-142.69;100.00
80566;BME280;69915;54.862;10.730;2023-11-21T00:53:37;66079.03;;;-142.69;100.00
80566;BME280;69915;54.862;10.730;2023-11-21T00:56:02;66079.03;;;-142.69;100.00
80566;BME280;69915;54.862;10.730;2023-11-21T00:58:28;66079.03;;;-142.69;100.00
80566;BME280;69915;54.862;10.730;2023-11-21T01:00:53;66079.03;;;-142.69;100.00
80566;BME280;69915;54.862;10.730;2023-11-21T01:03:19;66079.03;;;-142.69;100.00
80566;BME280;69915;54.862;10.730;2023-11-21T01:05:45;66079.03;;;-142.69;100.00
80566;BME280;69915;54.862;10.730;2023-11-21T01:08:11;66079.03;;;-142.69;100.00
80566;BME280;69915;54.862;10.730;2023-11-21T01:10:37;66079.03;;;-142.69;100.00
80566;BME280;69915;54.862;10.730;2023-11-21T01:13:03;66079.03;;;-142.69;100.00
80566;BME280;69915;54.862;10.730;2023-11-21T01:15:30;66079.03;;;-142.69;100.00
80566;BME280;69915;54.862;10.730;2023-11-21T01:17:55;66079.03;;;-142.69;100.00
80566;BME280;69915;54.862;10.730;2023-11-21T01:20:21;66079.03;;;-142.69;100.00
80566;BME280;69915;54.862;10.730;2023-11-21T01:22:46;66079.03;;;-142.69;100.00
80566;BME280;69915;54.862;10.730;2023-11-21T01:25:14;66079.03;;;-142.69;100.00
80566;BME280;69915;54.862;10.730;2023-11-21T01:27:42;66079.03;;;-142.69;100.00
80566;BME280;69915;54.862;10.730;2023-11-21T01:30:08;66079.03;;;-142.69;100.00
80566;BME280;69915;54.862;10.730;2023-11-21T01:32:36;66079.03;;;-142.69;100.00
80566;BME280;69915;54.862;10.730;2023-11-21T01:35:02;66079.03;;;-142.69;100.00
80566;BME280;69915;54.862;10.730;2023-11-21T01:37:30;66079.03;;;-142.69;100.00
80566;BME280;69915;54.862;10.730;2023-11-21T01:39:56;66079.03;;;-142.69;100.00
80566;BME280;69915;54.862;10.730;2023-11-21T01:42:21;66079.03;;;-142.69;100.00
80566;BME280;69915;54.862;10.730;2023-11-21T01:44:47;66079.03;;;-142.69;100.00
80566;BME280;69915;54.862;10.730;2023-11-21T01:47:13;66079.03;;;-142.69;100.00
80566;BME280;69915;54.862;10.730;2023-11-21T01:49:39;66079.03;;;-142.69;100.00
80566;BME280;69915;54.862;10.730;2023-11-21T01:52:05;66079.03;;;-142.69;100.00
80566;BME280;69915;54.862;10.730;2023-11-21T01:54:32;66079.03;;;-142.69;100.00
80566;BME280;69915;54.862;10.730;2023-11-21T01:56:58;66079.03;;;-142.69;100.00
80566;BME280;69915;54.862;10.730;2023-11-21T01:59:28;66079.03;;;-142.69;100.00
80566;BME280;69915;54.862;10.730;2023-11-21T02:01:57;66079.03;;;-142.69;100.00
80566;BME280;69915;54.862;10.730;2023-11-21T02:04:22;66079.03;;;-142.69;100.00
80566;BME280;69915;54.862;10.730;2023-11-21T02:06:48;66079.03;;;-142.69;100.00
80566;BME280;69915;54.862;10.730;2023-11-21T02:09:16;66079.03;;;-142.69;100.00
80566;BME280;69915;54.862;10.730;2023-11-21T02:11:42;66079.03;;;-142.69;100.00
80566;BME280;69915;54.862;10.730;2023-11-21T02:14:09;66079.03;;;-142.69;100.00
80566;BME280;69915;54.862;10.730;2023-11-21T02:16:35;66079.03;;;-142.69;100.00
80566;BME280;69915;54.862;10.730;2023-11-21T02:19:04;66079.03;;;-142.69;100.00
80566;BME280;69915;54.862;10.730;2023-11-21T02:21:34;66079.03;;;-142.69;100.00
80566;BME280;69915;54.862;10.730;2023-11-21T02:24:01;66079.03;;;-142.69;100.00
80566;BME280;69915;54.862;10.730;2023-11-21T02:26:26;66079.03;;;-142.69;100.00
80566;BME280;69915;54.862;10.730;2023-11-21T02:28:52;66079.03;;;-142.69;100.00
80566;BME280;69915;54.862;10.730;2023-11-21T02:31:18;66079.03;;;-142.69;100.00
80566;BME280;69915;54.862;10.730;2023-11-21T02:33:44;66079.03;;;-142.69;100.00
80566;BME280;69915;54.862;10.730;2023-11-21T02:36:09;66079.03;;;-142.69;100.00
80566;BME280;69915;54.862;10.730;2023-11-21T02:38:35;66079.03;;;-142.69;100.00
80566;BME280;69915;54.862;10.730;2023-11-21T02:41:00;66079.03;;;-142.69;100.00
80566;BME280;69915;54.862;10.730;2023-11-21T02:43:26;66079.03;;;-142.69;100.00
80566;BME280;69915;54.862;10.730;2023-11-21T02:45:51;66079.03;;;-142.69;100.00
80566;BME280;69915;54.862;10.730;2023-11-21T02:48:17;66079.03;;;-142.69;100.00
80566;BME280;69915;54.862;10.730;2023-11-21T02:50:42;66079.03;;;-142.69;100.00
80566;BME280;69915;54.862;10.730;2023-11-21T02:53:08;66079.03;;;-142.69;100.00
80566;BME280;69915;54.862;10.730;2023-11-21T02:55:36;66079.03;;;-142.69;100.00
80566;BME280;69915;54.862;10.730;2023-11-21T02:58:02;66079.03;;;-142.69;100.00
80566;BME280;69915;54.862;10.730;2023-11-21T03:00:29;66079.03;;;-142.69;100.00
80566;BME280;69915;54.862;10.730;2023-11-21T03:02:55;66079.03;;;-142.69;100.00
80566;BME280;69915;54.862;10.730;2023-11-21T03:05:21;66079.03;;;-142.69;100.00
80566;BME280;69915;54.862;10.730;2023-11-21T03:07:46;66079.03;;;-142.69;100.00
80566;BME280;69915;54.862;10.730;2023-11-21T03:10:12;66079.03;;;-142.69;100.00
80566;BME280;69915;54.862;10.730;2023-11-21T03:12:38;66079.03;;;-142.69;100.00
80566;BME280;69915;54.862;10.730;2023-11-21T03:15:07;66079.03;;;-142.69;100.00
80566;BME280;69915;54.862;10.730;2023-11-21T03:17:36;66079.03;;;-142.69;100.00
80566;BME280;69915;54.862;10.730;2023-11-21T03:20:02;66079.03;;;-142.69;100.00
80566;BME280;69915;54.862;10.730;2023-11-21T03:22:29;66079.03;;;-142.69;100.00
80566;BME280;69915;54.862;10.730;2023-11-21T03:24:54;66079.03;;;-142.69;100.00
80566;BME280;69915;54.862;10.730;2023-11-21T03:27:19;66079.03;;;-142.69;100.00
80566;BME280;69915;54.862;10.730;2023-11-21T03:29:45;66079.03;;;-142.69;100.00
80566;BME280;69915;54.862;10.730;2023-11-21T03:32:12;66079.03;;;-142.69;100.00
80566;BME280;69915;54.862;10.730;2023-11-21T03:34:53;66079.03;;;-142.69;100.00
80566;BME280;69915;54.862;10.730;2023-11-21T03:37:20;66079.03;;;-142.69;100.00
80566;BME280;69915;54.862;10.730;2023-11-21T03:39:46;66079.03;;;-142.69;100.00
80566;BME280;69915;54.862;10.730;2023-11-21T03:42:14;66079.03;;;-142.69;100.00
80566;BME280;69915;54.862;10.730;2023-11-21T03:44:39;66079.03;;;-142.69;100.00
80566;BME280;69915;54.862;10.730;2023-11-21T03:47:05;66079.03;;;-142.69;100.00
80566;BME280;69915;54.862;10.730;2023-11-21T03:49:30;66079.03;;;-142.69;100.00
80566;BME280;69915;54.862;10.730;2023-11-21T03:51:56;66079.03;;;-142.69;100.00
80566;BME280;69915;54.862;10.730;2023-11-21T03:54:21;66079.03;;;-142.69;100.00
80566;BME280;69915;54.862;10.730;2023-11-21T03:56:47;66079.03;;;-142.69;100.00
80566;BME280;69915;54.862;10.730;2023-11-21T03:59:12;66079.03;;;-142.69;100.00
80566;BME280;69915;54.862;10.730;2023-11-21T04:01:38;66079.03;;;-142.69;100.00
80566;BME280;69915;54.862;10.730;2023-11-21T04:04:03;66079.03;;;-142.69;100.00
80566;BME280;69915;54.862;10.730;2023-11-21T04:06:29;66079.03;;;-142.69;100.00
80566;BME280;69915;54.862;10.730;2023-11-21T04:08:54;66079.03;;;-142.69;100.00
80566;BME280;69915;54.862;10.730;2023-11-21T04:11:20;66079.03;;;-142.69;100.00
80566;BME280;69915;54.862;10.730;2023-11-21T04:13:45;66079.03;;;-142.69;100.00
80566;BME280;69915;54.862;10.730;2023-11-21T04:16:12;66079.03;;;-142.69;100.00
80566;BME280;69915;54.862;10.730;2023-11-21T04:18:38;66079.03;;;-142.69;100.00
80566;BME280;69915;54.862;10.730;2023-11-21T04:21:07;66079.03;;;-142.69;100.00
80566;BME280;69915;54.862;10.730;2023-11-21T04:23:35;66079.03;;;-142.69;100.00
80566;BME280;69915;54.862;10.730;2023-11-21T04:26:01;66079.03;;;-142.69;100.00
80566;BME280;69915;54.862;10.730;2023-11-21T04:28:27;66079.03;;;-142.69;100.00
80566;BME280;69915;54.862;10.730;2023-11-21T04:30:53;66079.03;;;-142.69;100.00
80566;BME280;69915;54.862;10.730;2023-11-21T04:33:18;66079.03;;;-142.69;100.00
80566;BME280;69915;54.862;10.730;2023-11-21T04:35:44;66079.03;;;-142.69;100.00
80566;BME280;69915;54.862;10.730;2023-11-21T04:38:09;66079.03;;;-142.69;100.00
80566;BME280;69915;54.862;10.730;2023-11-21T04:40:35;66079.03;;;-142.69;100.00
80566;BME280;69915;54.862;10.730;2023-11-21T04:43:00;66079.03;;;-142.69;100.00
80566;BME280;69915;54.862;10.730;2023-11-21T04:45:26;66079.03;;;-142.69;100.00
80566;BME280;69915;54.862;10.730;2023-11-21T04:47:52;66079.03;;;-142.69;100.00
80566;BME280;69915;54.862;10.730;2023-11-21T04:50:18;66079.03;;;-142.69;100.00
80566;BME280;69915;54.862;10.730;2023-11-21T04:52:44;66079.03;;;-142.69;100.00
80566;BME280;69915;54.862;10.730;2023-11-21T04:55:09;66079.03;;;-142.69;100.00
80566;BME280;69915;54.862;10.730;2023-11-21T04:57:36;66079.03;;;-142.69;100.00
80566;BME280;69915;54.862;10.730;2023-11-21T05:00:02;66079.03;;;-142.69;100.00
80566;BME280;69915;54.862;10.730;2023-11-21T05:02:31;66079.03;;;-142.69;100.00
80566;BME280;69915;54.862;10.730;2023-11-21T05:04:57;66079.03;;;-142.69;100.00
80566;BME280;69915;54.862;10.730;2023-11-21T05:07:22;66079.03;;;-142.69;100.00
80566;BME280;69915;54.862;10.730;2023-11-21T05:09:47;66079.03;;;-142.69;100.00
80566;BME280;69915;54.862;10.730;2023-11-21T05:12:13;66079.03;;;-142.69;100.00
80566;BME280;69915;54.862;10.730;2023-11-21T05:14:39;66079.03;;;-142.69;100.00
80566;BME280;69915;54.862;10.730;2023-11-21T05:17:05;66079.03;;;-142.69;100.00
80566;BME280;69915;54.862;10.730;2023-11-21T05:19:30;66079.03;;;-142.69;100.00
80566;BME280;69915;54.862;10.730;2023-11-21T05:21:58;66079.03;;;-142.69;100.00
80566;BME280;69915;54.862;10.730;2023-11-21T05:24:24;66079.03;;;-142.69;100.00
80566;BME280;69915;54.862;10.730;2023-11-21T05:26:49;66079.03;;;-142.69;100.00
80566;BME280;69915;54.862;10.730;2023-11-21T05:29:15;66079.03;;;-142.69;100.00
80566;BME280;69915;54.862;10.730;2023-11-21T05:31:40;66079.03;;;-142.69;100.00
80566;BME280;69915;54.862;10.730;2023-11-21T05:34:05;66079.03;;;-142.69;100.00
80566;BME280;69915;54.862;10.730;2023-11-21T05:36:31;66079.03;;;-142.69;100.00
80566;BME280;69915;54.862;10.730;2023-11-21T05:38:56;66079.03;;;-142.69;100.00
80566;BME280;69915;54.862;10.730;2023-11-21T05:41:22;66079.03;;;-142.69;100.00
80566;BME280;69915;54.862;10.730;2023-11-21T05:43:48;66079.03;;;-142.69;100.00
80566;BME280;69915;54.862;10.730;2023-11-21T05:46:14;66079.03;;;-142.69;100.00
80566;BME280;69915;54.862;10.730;2023-11-21T05:48:39;66079.03;;;-142.69;100.00
80566;BME280;69915;54.862;10.730;2023-11-21T05:51:06;66079.03;;;-142.69;100.00
80566;BME280;69915;54.862;10.730;2023-11-21T05:53:31;66079.03;;;-142.69;100.00
80566;BME280;69915;54.862;10.730;2023-11-21T05:55:57;66079.03;;;-142.69;100.00
80566;BME280;69915;54.862;10.730;2023-11-21T05:58:22;66079.03;;;-142.69;100.00
80566;BME280;69915;54.862;10.730;2023-11-21T06:00:48;66079.03;;;-142.69;100.00
80566;BME280;69915;54.862;10.730;2023-11-21T06:03:13;66079.03;;;-142.69;100.00
80566;BME280;69915;54.862;10.730;2023-11-21T06:05:39;66079.03;;;-142.69;100.00
80566;BME280;69915;54.862;10.730;2023-11-21T06:08:04;66079.03;;;-142.69;100.00
80566;BME280;69915;54.862;10.730;2023-11-21T06:10:29;66079.03;;;-142.69;100.00
80566;BME280;69915;54.862;10.730;2023-11-21T06:12:55;66079.03;;;-142.69;100.00
80566;BME280;69915;54.862;10.730;2023-11-21T06:15:20;66079.03;;;-142.69;100.00
80566;BME280;69915;54.862;10.730;2023-11-21T06:17:48;66079.03;;;-142.69;100.00
80566;BME280;69915;54.862;10.730;2023-11-21T06:20:18;66079.03;;;-142.69;100.00
80566;BME280;69915;54.862;10.730;2023-11-21T06:22:45;66079.03;;;-142.69;100.00
80566;BME280;69915;54.862;10.730;2023-11-21T06:25:12;66079.03;;;-142.69;100.00
80566;BME280;69915;54.862;10.730;2023-11-21T06:27:46;66079.03;;;-142.69;100.00
80566;BME280;69915;54.862;10.730;2023-11-21T06:30:13;66079.03;;;-142.69;100.00
80566;BME280;69915;54.862;10.730;2023-11-21T06:32:41;66079.03;;;-142.69;100.00
80566;BME280;69915;54.862;10.730;2023-11-21T06:35:07;66079.03;;;-142.69;100.00
80566;BME280;69915;54.862;10.730;2023-11-21T06:37:33;66079.03;;;-142.69;100.00
80566;BME280;69915;54.862;10.730;2023-11-21T06:40:00;66079.03;;;-142.69;100.00
80566;BME280;69915;54.862;10.730;2023-11-21T06:42:26;66079.03;;;-142.69;100.00
80566;BME280;69915;54.862;10.730;2023-11-21T06:44:52;66079.03;;;-142.69;100.00
80566;BME280;69915;54.862;10.730;2023-11-21T06:47:18;66079.03;;;-142.69;100.00
80566;BME280;69915;54.862;10.730;2023-11-21T06:49:46;66079.03;;;-142.69;100.00
80566;BME280;69915;54.862;10.730;2023-11-21T06:52:13;66079.03;;;-142.69;100.00
80566;BME280;69915;54.862;10.730;2023-11-21T06:54:38;66079.03;;;-142.69;100.00
80566;BME280;69915;54.862;10.730;2023-11-21T06:57:04;66079.03;;;-142.69;100.00
80566;BME280;69915;54.862;10.730;2023-11-21T06:59:29;66079.03;;;-142.69;100.00
80566;BME280;69915;54.862;10.730;2023-11-21T07:01:55;66079.03;;;-142.69;100.00
80566;BME280;69915;54.862;10.730;2023-11-21T07:04:20;66079.03;;;-142.69;100.00
80566;BME280;69915;54.862;10.730;2023-11-21T07:06:46;66079.03;;;-142.69;100.00
80566;BME280;69915;54.862;10.730;2023-11-21T07:09:11;66079.03;;;-142.69;100.00
80566;BME280;69915;54.862;10.730;2023-11-21T07:11:37;66079.03;;;-142.69;100.00
80566;BME280;69915;54.862;10.730;2023-11-21T07:14:05;66079.03;;;-142.69;100.00
80566;BME280;69915;54.862;10.730;2023-11-21T07:16:36;66079.03;;;-142.69;100.00
80566;BME280;69915;54.862;10.730;2023-11-21T07:19:06;66079.03;;;-142.69;100.00
80566;BME280;69915;54.862;10.730;2023-11-21T07:21:32;66079.03;;;-142.69;100.00
80566;BME280;69915;54.862;10.730;2023-11-21T07:24:02;66079.03;;;-142.69;100.00
80566;BME280;69915;54.862;10.730;2023-11-21T07:26:29;66079.03;;;-142.69;100.00
80566;BME280;69915;54.862;10.730;2023-11-21T07:28:54;66079.03;;;-142.69;100.00
80566;BME280;69915;54.862;10.730;2023-11-21T07:31:24;66079.03;;;-142.69;100.00
80566;BME280;69915;54.862;10.730;2023-11-21T07:33:49;66079.03;;;-142.69;100.00
80566;BME280;69915;54.862;10.730;2023-11-21T07:36:21;66079.03;;;-142.69;100.00
80566;BME280;69915;54.862;10.730;2023-11-21T07:38:47;66079.03;;;-142.69;100.00
80566;BME280;69915;54.862;10.730;2023-11-21T07:41:13;66079.03;;;-142.69;100.00
80566;BME280;69915;54.862;10.730;2023-11-21T07:43:43;66079.03;;;-142.69;100.00
80566;BME280;69915;54.862;10.730;2023-11-21T07:46:10;66079.03;;;-142.69;100.00
80566;BME280;69915;54.862;10.730;2023-11-21T07:48:38;66079.03;;;-142.69;100.00
80566;BME280;69915;54.862;10.730;2023-11-21T07:51:03;66079.03;;;-142.69;100.00
80566;BME280;69915;54.862;10.730;2023-11-21T07:53:29;66079.03;;;-142.69;100.00
80566;BME280;69915;54.862;10.730;2023-11-21T07:56:02;66079.03;;;-142.69;100.00
80566;BME280;69915;54.862;10.730;2023-11-21T07:58:27;66079.03;;;-142.69;100.00
80566;BME280;69915;54.862;10.730;2023-11-21T08:00:53;66079.03;;;-142.69;100.00
80566;BME280;69915;54.862;10.730;2023-11-21T08:03:19;66079.03;;;-142.69;100.00
80566;BME280;69915;54.862;10.730;2023-11-21T08:05:44;66079.03;;;-142.69;100.00
80566;BME280;69915;54.862;10.730;2023-11-21T08:08:10;66079.03;;;-142.69;100.00
80566;BME280;69915;54.862;10.730;2023-11-21T08:10:36;66079.03;;;-142.69;100.00
80566;BME280;69915;54.862;10.730;2023-11-21T08:13:03;66079.03;;;-142.69;100.00
80566;BME280;69915;54.862;10.730;2023-11-21T08:15:29;66079.03;;;-142.69;100.00
80566;BME280;69915;54.862;10.730;2023-11-21T08:17:57;66079.03;;;-142.69;100.00
80566;BME280;69915;54.862;10.730;2023-11-21T08:20:22;66079.03;;;-142.69;100.00
80566;BME280;69915;54.862;10.730;2023-11-21T08:22:48;66079.03;;;-142.69;100.00
80566;BME280;69915;54.862;10.730;2023-11-21T08:25:14;66079.03;;;-142.69;100.00
80566;BME280;69915;54.862;10.730;2023-11-21T08:27:39;66079.03;;;-142.69;100.00
80566;BME280;69915;54.862;10.730;2023-11-21T08:30:05;66079.03;;;-142.69;100.00
80566;BME280;69915;54.862;10.730;2023-11-21T08:32:32;66079.03;;;-142.69;100.00
80566;BME280;69915;54.862;10.730;2023-11-21T08:35:01;66079.03;;;-142.69;100.00
80566;BME280;69915;54.862;10.730;2023-11-21T08:37:27;66079.03;;;-142.69;100.00
80566;BME280;69915;54.862;10.730;2023-11-21T08:39:53;66079.03;;;-142.69;100.00
80566;BME280;69915;54.862;10.730;2023-11-21T08:42:19;66079.03;;;-142.69;100.00
80566;BME280;69915;54.862;10.730;2023-11-21T08:44:45;66079.03;;;-142.69;100.00
80566;BME280;69915;54.862;10.730;2023-11-21T08:47:11;66079.03;;;-142.69;100.00
80566;BME280;69915;54.862;10.730;2023-11-21T08:49:36;66079.03;;;-142.69;100.00
80566;BME280;69915;54.862;10.730;2023-11-21T08:52:03;66079.03;;;-142.69;100.00
80566;BME280;69915;54.862;10.730;2023-11-21T08:54:30;66079.03;;;-142.69;100.00
80566;BME280;69915;54.862;10.730;2023-11-21T08:56:56;66079.03;;;-142.69;100.00
80566;BME280;69915;54.862;10.730;2023-11-21T08:59:24;66079.03;;;-142.69;100.00
80566;BME280;69915;54.862;10.730;2023-11-21T09:01:50;66079.03;;;-142.69;100.00
80566;BME280;69915;54.862;10.730;2023-11-21T09:04:16;66079.03;;;-142.69;100.00
80566;BME280;69915;54.862;10.730;2023-11-21T09:06:41;66079.03;;;-142.69;100.00
80566;BME280;69915;54.862;10.730;2023-11-21T09:09:06;66079.03;;;-142.69;100.00
80566;BME280;69915;54.862;10.730;2023-11-21T09:11:33;66079.03;;;-142.69;100.00
80566;BME280;69915;54.862;10.730;2023-11-21T09:14:03;66079.03;;;-142.69;100.00
80566;BME280;69915;54.862;10.730;2023-11-21T09:16:28;66079.03;;;-142.69;100.00
80566;BME280;69915;54.862;10.730;2023-11-21T09:18:54;66079.03;;;-142.69;100.00
80566;BME280;69915;54.862;10.730;2023-11-21T09:21:19;66079.03;;;-142.69;100.00
80566;BME280;69915;54.862;10.730;2023-11-21T09:23:45;66079.03;;;-142.69;100.00
80566;BME280;69915;54.862;10.730;2023-11-21T09:26:11;66079.03;;;-142.69;100.00
80566;BME280;69915;54.862;10.730;2023-11-21T09:28:36;66079.03;;;-142.69;100.00
80566;BME280;69915;54.862;10.730;2023-11-21T09:31:07;66079.03;;;-142.69;100.00
80566;BME280;69915;54.862;10.730;2023-11-21T09:33:34;66079.03;;;-142.69;100.00
80566;BME280;69915;54.862;10.730;2023-11-21T09:36:00;66079.03;;;-142.69;100.00
80566;BME280;69915;54.862;10.730;2023-11-21T09:38:26;66079.03;;;-142.69;100.00
80566;BME280;69915;54.862;10.730;2023-11-21T09:40:54;66079.03;;;-142.69;100.00
80566;BME280;69915;54.862;10.730;2023-11-21T09:43:20;66079.03;;;-142.69;100.00
80566;BME280;69915;54.862;10.730;2023-11-21T09:45:48;66079.03;;;-142.69;100.00
80566;BME280;69915;54.862;10.730;2023-11-21T09:48:19;66079.03;;;-142.69;100.00
80566;BME280;69915;54.862;10.730;2023-11-21T09:50:47;66079.03;;;-142.69;100.00
80566;BME280;69915;54.862;10.730;2023-11-21T09:53:20;66079.03;;;-142.69;100.00
80566;BME280;69915;54.862;10.730;2023-11-21T09:55:50;66079.03;;;-142.69;100.00
80566;BME280;69915;54.862;10.730;2023-11-21T09:58:17;66079.03;;;-142.69;100.00
80566;BME280;69915;54.862;10.730;2023-11-21T10:00:45;66079.03;;;-142.69;100.00
80566;BME280;69915;54.862;10.730;2023-11-21T10:03:11;66079.03;;;-142.69;100.00
80566;BME280;69915;54.862;10.730;2023-11-21T10:05:39;66079.03;;;-142.69;100.00
80566;BME280;69915;54.862;10.730;2023-11-21T10:08:07;66079.03;;;-142.69;100.00
80566;BME280;69915;54.862;10.730;2023-11-21T10:10:35;66079.03;;;-142.69;100.00
80566;BME280;69915;54.862;10.730;2023-11-21T10:13:03;66079.03;;;-142.69;100.00
80566;BME280;69915;54.862;10.730;2023-11-21T10:15:33;66079.03;;;-142.69;100.00
80566;BME280;69915;54.862;10.730;2023-11-21T10:18:04;66079.03;;;-142.69;100.00
80566;BME280;69915;54.862;10.730;2023-11-21T10:20:32;66079.03;;;-142.69;100.00
80566;BME280;69915;54.862;10.730;2023-11-21T10:23:00;66079.03;;;-142.69;100.00
80566;BME280;69915;54.862;10.730;2023-11-21T10:25:29;66079.03;;;-142.69;100.00
80566;BME280;69915;54.862;10.730;2023-11-21T10:28:01;66079.03;;;-142.69;100.00
80566;BME280;69915;54.862;10.730;2023-11-21T10:30:37;66079.03;;;-142.69;100.00
80566;BME280;69915;54.862;10.730;2023-11-21T10:33:04;66079.03;;;-142.69;100.00
80566;BME280;69915;54.862;10.730;2023-11-21T10:38:13;66079.03;;;-142.69;100.00
80566;BME280;69915;54.862;10.730;2023-11-21T10:40:40;66079.03;;;-142.69;100.00
80566;BME280;69915;54.862;10.730;2023-11-21T10:43:07;66079.03;;;-142.69;100.00
80566;BME280;69915;54.862;10.730;2023-11-21T10:45:35;66079.03;;;-142.69;100.00
80566;BME280;69915;54.862;10.730;2023-11-21T10:48:05;66079.03;;;-142.69;100.00
80566;BME280;69915;54.862;10.730;2023-11-21T10:50:33;66079.03;;;-142.69;100.00
80566;BME280;69915;54.862;10.730;2023-11-21T10:53:03;66079.03;;;-142.69;100.00
80566;BME280;69915;54.862;10.730;2023-11-21T10:55:30;66079.03;;;-142.69;100.00
80566;BME280;69915;54.862;10.730;2023-11-21T10:58:01;66079.03;;;-142.69;100.00
80566;BME280;69915;54.862;10.730;2023-11-21T11:00:28;66079.03;;;-142.69;100.00
80566;BME280;69915;54.862;10.730;2023-11-21T11:02:55;66079.03;;;-142.69;100.00
80566;BME280;69915;54.862;10.730;2023-11-21T11:05:22;66079.03;;;-142.69;100.00
80566;BME280;69915;54.862;10.730;2023-11-21T11:07:56;66079.03;;;-142.69;100.00
80566;BME280;69915;54.862;10.730;2023-11-21T11:10:26;66079.03;;;-142.69;100.00
80566;BME280;69915;54.862;10.730;2023-11-21T11:12:56;66079.03;;;-142.69;100.00
80566;BME280;69915;54.862;10.730;2023-11-21T11:15:23;66079.03;;;-142.69;100.00
80566;BME280;69915;54.862;10.730;2023-11-21T11:17:49;66079.03;;;-142.69;100.00
80566;BME280;69915;54.862;10.730;2023-11-21T11:20:16;66079.03;;;-142.69;100.00
80566;BME280;69915;54.862;10.730;2023-11-21T11:23:07;66079.03;;;-142.69;100.00
80566;BME280;69915;54.862;10.730;2023-11-21T11:26:17;66079.03;;;-142.69;100.00
80566;BME280;69915;54.862;10.730;2023-11-21T11:28:47;66079.03;;;-142.69;100.00
80566;BME280;69915;54.862;10.730;2023-11-21T11:34:28;66079.03;;;-142.69;100.00
80566;BME280;69915;54.862;10.730;2023-11-21T11:37:07;66079.03;;;-142.69;100.00
80566;BME280;69915;54.862;10.730;2023-11-21T11:42:07;66079.03;;;-142.69;100.00
80566;BME280;69915;54.862;10.730;2023-11-21T11:50:06;66079.03;;;-142.69;100.00
80566;BME280;69915;54.862;10.730;2023-11-21T11:52:37;66079.03;;;-142.69;100.00
80566;BME280;69915;54.862;10.730;2023-11-21T11:55:09;66079.03;;;-142.69;100.00
80566;BME280;69915;54.862;10.730;2023-11-21T11:57:35;66079.03;;;-142.69;100.00
80566;BME280;69915;54.862;10.730;2023-11-21T12:00:14;66079.03;;;-142.69;100.00
80566;BME280;69915;54.862;10.730;2023-11-21T12:02:54;66079.03;;;-142.69;100.00
80566;BME280;69915;54.862;10.730;2023-11-21T12:05:21;66079.03;;;-142.69;100.00
80566;BME280;69915;54.862;10.730;2023-11-21T12:07:52;66079.03;;;-142.69;100.00
80566;BME280;69915;54.862;10.730;2023-11-21T12:10:29;66079.03;;;-142.69;100.00
80566;BME280;69915;54.862;10.730;2023-11-21T12:15:20;66079.03;;;-142.69;100.00
80566;BME280;69915;54.862;10.730;2023-11-21T12:17:47;66079.03;;;-142.69;100.00
80566;BME280;69915;54.862;10.730;2023-11-21T13:58:25;102028.25;;;20.55;76.74
80566;BME280;69915;54.862;10.730;2023-11-21T14:01:08;102028.25;;;20.55;75.88
80566;BME280;69915;54.862;10.730;2023-11-21T14:05:04;102043.75;;;20.82;75.88
80566;BME280;69915;54.862;10.730;2023-11-21T14:07:34;102045.22;;;20.80;75.66
80566;BME280;69915;54.862;10.730;2023-11-21T14:10:03;102053.56;;;20.80;75.72
80566;BME280;69915;54.862;10.730;2023-11-21T14:12:30;102058.81;;;20.81;75.44
80566;BME280;69915;54.862;10.730;2023-11-21T14:14:59;102068.78;;;20.82;75.53
80566;BME280;69915;54.862;10.730;2023-11-21T14:17:25;102070.41;;;20.83;75.89